createdAt,value
2023-10-29T00:04:48.730Z,8.95
2023-10-29T00:14:52.645Z,8.91
2023-10-29T00:24:54.906Z,8.92
2023-10-29T00:34:57.800Z,8.79
2023-10-29T00:44:59.605Z,8.71
2023-10-29T00:55:01.624Z,8.63
2023-10-29T01:05:06.596Z,8.40
2023-10-29T01:15:08.634Z,8.34
2023-10-29T01:25:10.911Z,8.00
2023-10-29T01:35:12.867Z,7.84
2023-10-29T01:45:18.277Z,7.78
2023-10-29T01:55:21.327Z,7.90
2023-10-29T02:05:23.189Z,7.96
2023-10-29T02:15:24.947Z,7.99
2023-10-29T02:25:26.695Z,8.00
2023-10-29T02:35:28.460Z,7.80
2023-10-29T02:45:37.557Z,7.56
2023-10-29T02:55:39.181Z,7.37
2023-10-29T03:15:46.322Z,7.21
2023-10-29T03:25:48.293Z,7.21
2023-10-29T03:35:51.134Z,7.13
2023-10-29T03:45:53.974Z,7.09
2023-10-29T03:55:59.595Z,6.98
2023-10-29T04:06:01.262Z,6.96
2023-10-29T04:16:03.105Z,6.83
2023-10-29T04:26:04.994Z,6.76
2023-10-29T04:36:07.598Z,6.81
2023-10-29T04:46:12.029Z,6.81
2023-10-29T04:56:13.821Z,6.70
2023-10-29T05:06:22.721Z,6.56
2023-10-29T05:16:24.624Z,6.45
2023-10-29T05:26:26.629Z,6.36
2023-10-29T05:36:29.385Z,6.36
2023-10-29T05:46:31.089Z,6.55
2023-10-29T05:56:33.696Z,6.56
2023-10-29T06:06:35.431Z,6.55
2023-10-29T06:16:38.474Z,6.64
2023-10-29T06:26:41.978Z,7.47
2023-10-29T06:36:54.941Z,8.19
2023-10-29T06:46:57.724Z,8.28
2023-10-29T06:57:00.570Z,8.87
2023-10-29T07:07:03.516Z,9.33
2023-10-29T07:17:05.748Z,9.64
2023-10-29T07:27:07.385Z,10.04
2023-10-29T07:37:12.030Z,10.87
2023-10-29T07:47:13.867Z,13.94
2023-10-29T07:57:16.610Z,16.01
2023-10-29T08:07:19.351Z,17.28
2023-10-29T08:17:22.286Z,18.45
2023-10-29T08:27:24.850Z,19.38
2023-10-29T08:37:26.687Z,20.26
2023-10-29T08:47:28.552Z,20.43
2023-10-29T08:57:30.223Z,21.03
2023-10-29T09:07:32.120Z,26.29
2023-10-29T09:17:33.962Z,27.02
2023-10-29T09:27:35.731Z,27.30
2023-10-29T09:37:37.429Z,24.50
2023-10-29T09:47:39.861Z,27.31
2023-10-29T09:57:42.810Z,28.95
2023-10-29T10:07:44.491Z,27.03
2023-10-29T10:18:05.815Z,32.20
2023-10-29T10:28:09.945Z,31.53
2023-10-29T10:38:12.198Z,30.08
2023-10-29T10:48:13.991Z,29.02
2023-10-29T10:58:19.341Z,26.76
2023-10-29T11:08:22.539Z,27.21
2023-10-29T11:18:36.151Z,28.17
2023-10-29T11:28:37.811Z,28.79
2023-10-29T11:38:40.556Z,24.64
2023-10-29T11:49:04.881Z,23.52
2023-10-29T11:59:06.972Z,25.77
2023-10-29T12:09:23.861Z,25.16
2023-10-29T12:19:41.589Z,23.84
2023-10-29T12:29:43.473Z,24.11
2023-10-29T12:39:46.482Z,23.13
2023-10-29T12:50:04.683Z,22.39
2023-10-29T13:00:07.643Z,22.11
2023-10-29T13:10:14.136Z,26.98
2023-10-29T13:20:16.345Z,26.38
2023-10-29T13:30:18.271Z,25.70
2023-10-29T13:40:20.253Z,27.69
2023-10-29T13:50:22.001Z,24.08
2023-10-29T14:00:27.053Z,22.71
2023-10-29T14:10:28.886Z,21.91
2023-10-29T14:20:31.252Z,21.32
2023-10-29T14:30:34.897Z,20.97
2023-10-29T14:40:40.276Z,21.04
2023-10-29T14:50:43.402Z,20.50
2023-10-29T15:00:46.257Z,19.89
2023-10-29T15:10:52.153Z,19.57
2023-10-29T15:21:01.020Z,19.22
2023-10-29T15:31:10.639Z,18.92
2023-10-29T15:41:14.701Z,18.52
2023-10-29T15:51:17.021Z,18.16
2023-10-29T16:01:20.477Z,17.96
2023-10-29T16:11:24.387Z,17.64
2023-10-29T16:21:27.067Z,17.65
2023-10-29T16:31:31.817Z,17.49
2023-10-29T16:41:34.240Z,17.26
2023-10-29T16:51:37.018Z,17.20
2023-10-29T17:01:40.181Z,17.11
2023-10-29T17:11:43.830Z,16.92
2023-10-29T17:21:50.632Z,16.98
2023-10-29T17:31:54.952Z,17.03
2023-10-29T17:41:58.200Z,17.15
2023-10-29T17:52:02.167Z,17.04
2023-10-29T18:02:04.881Z,16.80
2023-10-29T18:12:08.293Z,16.52
2023-10-29T18:22:11.577Z,16.48
2023-10-29T18:32:14.233Z,16.45
2023-10-29T18:42:17.147Z,16.55
2023-10-29T18:52:20.274Z,16.60
2023-10-29T19:02:23.002Z,16.36
2023-10-29T19:12:26.101Z,16.28
2023-10-29T19:22:31.757Z,16.16
2023-10-29T19:32:36.916Z,16.06
2023-10-29T19:42:41.810Z,16.09
2023-10-29T19:52:53.451Z,16.21
2023-10-29T20:02:58.715Z,16.16
2023-10-29T20:13:01.890Z,15.95
2023-10-29T20:23:05.757Z,15.92
2023-10-29T20:33:09.789Z,15.86
2023-10-29T20:43:12.178Z,15.67
2023-10-29T20:53:15.486Z,15.59
2023-10-29T21:03:17.686Z,15.44
2023-10-29T21:13:25.528Z,15.41
2023-10-29T21:23:28.948Z,15.62
2023-10-29T21:33:30.837Z,15.64
2023-10-29T21:43:35.591Z,15.36
2023-10-29T21:53:39.594Z,15.22
2023-10-29T22:03:41.445Z,15.05
2023-10-29T22:13:43.262Z,14.88
2023-10-29T22:23:46.686Z,14.64
2023-10-29T22:33:49.269Z,14.43
2023-10-29T22:43:51.005Z,14.38
2023-10-29T22:53:52.681Z,14.43
2023-10-29T23:03:54.524Z,14.33
2023-10-29T23:13:56.342Z,14.46
2023-10-29T23:23:59.042Z,14.39
2023-10-29T23:34:00.846Z,14.54
2023-10-29T23:44:08.992Z,14.92
2023-10-29T23:54:11.015Z,15.29
